createdAt,value
2023-04-09T00:02:57.928Z,100834.92
2023-04-09T00:08:01.640Z,100833.79
2023-04-09T00:13:05.061Z,100831.73
2023-04-09T00:18:08.578Z,100833.17
2023-04-09T00:23:13.074Z,100826.95
2023-04-09T00:28:17.024Z,100828.39
2023-04-09T00:33:20.648Z,100825.09
2023-04-09T00:38:24.163Z,100827.02
2023-04-09T00:43:27.783Z,100827.02
2023-04-09T00:48:31.603Z,100827.35
2023-04-09T00:53:35.529Z,100826.99
2023-04-09T00:58:41.722Z,100826.54
2023-04-09T01:03:45.720Z,100828.45
2023-04-09T01:08:59.899Z,100832.94
2023-04-09T01:14:13.037Z,100830.05
2023-04-09T01:19:32.838Z,100830.05
2023-04-09T01:24:59.189Z,100826.34
2023-04-09T01:30:05.509Z,100825.02
2023-04-09T01:35:10.230Z,100823.95
2023-04-09T01:40:13.831Z,100823.97
2023-04-09T01:45:18.043Z,100826.70
2023-04-09T01:50:21.374Z,100833.95
2023-04-09T01:55:24.789Z,100837.59
2023-04-09T02:00:38.642Z,100834.57
2023-04-09T02:05:53.425Z,100834.69
2023-04-09T02:10:59.296Z,100835.77
2023-04-09T02:16:04.092Z,100832.45
2023-04-09T02:21:08.040Z,100831.05
2023-04-09T02:26:11.382Z,100828.95
2023-04-09T02:31:15.001Z,100823.41
2023-04-09T02:36:18.418Z,100826.01
2023-04-09T02:41:22.035Z,100826.19
2023-04-09T02:46:25.692Z,100823.76
2023-04-09T02:51:29.166Z,100828.70
2023-04-09T02:56:32.777Z,100826.13
2023-04-09T03:01:36.779Z,100823.70
2023-04-09T03:06:40.425Z,100819.20
2023-04-09T03:11:43.844Z,100816.73
2023-04-09T03:16:47.365Z,100816.92
2023-04-09T03:21:51.687Z,100814.13
2023-04-09T03:26:54.998Z,100811.65
2023-04-09T03:31:58.628Z,100810.64
2023-04-09T03:37:02.139Z,100811.46
2023-04-09T03:42:05.853Z,100817.63
2023-04-09T03:47:09.321Z,100820.84
2023-04-09T03:52:12.884Z,100822.16
2023-04-09T03:57:16.395Z,100824.39
2023-04-09T04:02:19.816Z,100827.22
2023-04-09T04:07:23.433Z,100824.77
2023-04-09T04:12:26.839Z,100825.67
2023-04-09T04:17:30.278Z,100831.58
2023-04-09T04:22:35.540Z,100832.77
2023-04-09T04:27:43.619Z,100828.60
2023-04-09T04:32:47.161Z,100829.50
2023-04-09T04:37:51.993Z,100829.09
2023-04-09T04:42:55.414Z,100829.12
2023-04-09T04:47:59.023Z,100832.88
2023-04-09T04:53:02.654Z,100835.56
2023-04-09T04:58:06.266Z,100832.40
2023-04-09T05:03:09.843Z,100831.64
2023-04-09T05:08:13.395Z,100834.85
2023-04-09T05:13:17.115Z,100835.36
2023-04-09T05:18:21.037Z,100841.84
2023-04-09T05:23:24.455Z,100843.77
2023-04-09T05:28:27.968Z,100839.64
2023-04-09T05:33:35.694Z,100844.27
2023-04-09T05:38:38.995Z,100847.73
2023-04-09T05:43:43.175Z,100849.21
2023-04-09T05:48:47.154Z,100847.70
2023-04-09T05:53:50.741Z,100845.89
2023-04-09T05:58:54.910Z,100844.53
2023-04-09T06:03:58.781Z,100843.89
2023-04-09T06:09:02.820Z,100843.81
2023-04-09T06:14:06.175Z,100849.40
2023-04-09T06:19:09.691Z,100854.16
2023-04-09T06:24:13.144Z,100856.30
2023-04-09T06:29:16.609Z,100863.77
2023-04-09T06:34:20.335Z,100868.81
2023-04-09T06:39:23.642Z,100873.36
2023-04-09T06:44:27.220Z,100873.22
2023-04-09T06:49:30.671Z,100874.78
2023-04-09T06:54:34.190Z,100880.21
2023-04-09T06:59:37.701Z,100885.30
2023-04-09T07:04:41.797Z,100888.64
2023-04-09T07:09:45.150Z,100892.64
2023-04-09T07:14:48.553Z,100895.63
2023-04-09T07:19:52.171Z,100901.76
2023-04-09T07:24:55.692Z,100906.67
2023-04-09T07:30:00.128Z,100910.93
2023-04-09T07:35:05.317Z,100909.00
2023-04-09T07:40:09.511Z,100906.85
2023-04-09T07:45:12.930Z,100901.98
2023-04-09T07:50:16.547Z,100906.60
2023-04-09T07:55:20.570Z,100906.63
2023-04-09T08:00:24.368Z,100913.42
2023-04-09T08:05:28.628Z,100915.52
2023-04-09T08:10:32.149Z,100919.36
2023-04-09T08:15:35.556Z,100920.13
2023-04-09T08:20:45.373Z,100916.77
2023-04-09T08:25:48.932Z,100921.41
2023-04-09T08:30:52.961Z,100922.05
2023-04-09T08:35:56.273Z,100921.61
2023-04-09T08:40:59.786Z,100919.35
2023-04-09T08:46:03.752Z,100918.05
2023-04-09T08:51:07.535Z,100913.54
2023-04-09T08:56:10.847Z,100906.95
2023-04-09T09:01:21.713Z,100905.77
2023-04-09T09:06:29.059Z,100906.92
2023-04-09T09:11:34.007Z,100908.58
2023-04-09T09:16:42.881Z,100912.02
2023-04-09T09:21:57.024Z,100913.98
2023-04-09T09:27:01.784Z,100913.77
2023-04-09T09:32:13.760Z,100922.06
2023-04-09T09:37:30.729Z,100920.83
2023-04-09T09:42:34.094Z,100920.18
2023-04-09T09:47:37.820Z,100916.23
2023-04-09T09:52:44.936Z,100914.00
2023-04-09T09:57:51.744Z,100910.94
2023-04-09T10:03:08.787Z,100910.64
2023-04-09T10:08:13.074Z,100906.95
2023-04-09T10:13:24.782Z,100908.90
2023-04-09T10:18:30.189Z,100906.80
2023-04-09T10:23:39.103Z,100903.16
2023-04-09T10:28:43.622Z,100902.23
2023-04-09T10:33:46.932Z,100905.47
2023-04-09T10:38:51.336Z,100906.05
2023-04-09T10:43:54.990Z,100905.52
2023-04-09T10:49:22.466Z,100907.05
2023-04-09T10:54:34.934Z,100903.80
2023-04-09T10:59:47.863Z,100905.15
2023-04-09T11:05:07.061Z,100902.98
2023-04-09T11:10:10.425Z,100906.44
2023-04-09T11:15:18.560Z,100899.48
2023-04-09T11:20:23.906Z,100902.45
2023-04-09T11:25:30.255Z,100900.34
2023-04-09T11:30:34.616Z,100897.28
2023-04-09T11:35:38.086Z,100897.75
2023-04-09T11:40:49.503Z,100895.52
2023-04-09T11:45:53.967Z,100893.53
2023-04-09T11:50:58.215Z,100891.16
2023-04-09T11:56:01.929Z,100890.04
2023-04-09T12:01:05.854Z,100887.01
2023-04-09T12:06:11.927Z,100882.29
2023-04-09T12:11:16.364Z,100881.23
2023-04-09T12:16:23.316Z,100883.55
2023-04-09T12:21:56.143Z,100881.66
2023-04-09T12:26:59.475Z,100878.67
2023-04-09T12:32:02.823Z,100875.82
2023-04-09T12:37:06.606Z,100875.29
2023-04-09T12:42:09.922Z,100868.19
2023-04-09T12:47:13.743Z,100865.54
2023-04-09T12:52:18.684Z,100860.23
2023-04-09T12:57:22.115Z,100857.16
2023-04-09T13:02:26.137Z,100850.55
2023-04-09T13:07:30.058Z,100849.32
2023-04-09T13:12:33.276Z,100850.88
2023-04-09T13:17:36.945Z,100847.82
2023-04-09T13:22:40.607Z,100843.09
2023-04-09T13:27:44.221Z,100837.58
2023-04-09T13:32:47.803Z,100835.92
2023-04-09T13:37:51.457Z,100834.40
2023-04-09T13:42:54.872Z,100827.23
2023-04-09T13:48:04.079Z,100828.35
2023-04-09T13:53:07.532Z,100826.14
2023-04-09T13:58:10.950Z,100822.20
2023-04-09T14:03:14.777Z,100820.50
2023-04-09T14:08:18.701Z,100812.58
2023-04-09T14:13:21.901Z,100808.98
2023-04-09T14:18:25.312Z,100809.47
2023-04-09T14:23:29.034Z,100807.58
2023-04-09T14:28:32.450Z,100807.40
2023-04-09T14:33:36.172Z,100810.08
2023-04-09T14:38:39.584Z,100805.61
2023-04-09T14:43:42.891Z,100804.11
2023-04-09T14:48:46.823Z,100799.92
2023-04-09T14:53:50.231Z,100795.59
2023-04-09T14:58:54.452Z,100790.48
2023-04-09T15:03:58.210Z,100792.02
2023-04-09T15:09:02.027Z,100797.87
2023-04-09T15:14:05.657Z,100795.54
2023-04-09T15:19:08.943Z,100795.63
2023-04-09T15:24:12.348Z,100808.95
2023-04-09T15:29:15.863Z,100805.13
2023-04-09T15:34:19.377Z,100805.69
2023-04-09T15:39:28.659Z,100807.65
2023-04-09T15:44:32.264Z,100807.27
2023-04-09T15:49:37.120Z,100813.61
2023-04-09T15:54:40.417Z,100815.42
2023-04-09T15:59:44.046Z,100820.38
2023-04-09T16:04:47.529Z,100823.91
2023-04-09T16:09:51.264Z,100818.54
2023-04-09T16:14:55.191Z,100822.73
2023-04-09T16:19:58.612Z,100823.23
2023-04-09T16:25:02.118Z,100819.05
2023-04-09T16:30:06.104Z,100814.00
2023-04-09T16:35:09.450Z,100820.64
2023-04-09T16:40:12.972Z,100823.70
2023-04-09T16:45:16.571Z,100831.96
2023-04-09T16:50:20.865Z,100838.12
2023-04-09T16:55:24.328Z,100838.48
2023-04-09T17:00:27.951Z,100838.02
2023-04-09T17:05:31.695Z,100838.53
2023-04-09T17:10:37.132Z,100840.80
2023-04-09T17:15:40.439Z,100848.48
2023-04-09T17:20:44.271Z,100853.95
2023-04-09T17:25:47.880Z,100858.83
2023-04-09T17:30:51.604Z,100856.88
2023-04-09T17:35:55.035Z,100858.89
2023-04-09T17:40:58.538Z,100863.98
2023-04-09T17:46:02.071Z,100872.29
2023-04-09T17:51:06.445Z,100872.46
2023-04-09T17:56:15.017Z,100880.06
2023-04-09T18:01:18.967Z,100884.17
2023-04-09T18:06:22.356Z,100894.57
2023-04-09T18:11:25.870Z,100894.86
2023-04-09T18:16:29.503Z,100898.07
2023-04-09T18:21:33.215Z,100901.25
2023-04-09T18:26:37.037Z,100902.98
2023-04-09T18:31:40.660Z,100911.45
2023-04-09T18:36:44.266Z,100915.48
2023-04-09T18:41:47.578Z,100925.21
2023-04-09T18:46:51.429Z,100928.59
2023-04-09T18:51:56.348Z,100934.88
2023-04-09T18:56:59.666Z,100939.33
2023-04-09T19:02:05.610Z,100940.21
2023-04-09T19:07:09.362Z,100942.27
2023-04-09T19:12:12.779Z,100936.91
2023-04-09T19:17:20.170Z,100930.68
2023-04-09T19:22:33.122Z,100926.43
2023-04-09T19:27:36.632Z,100920.89
2023-04-09T19:32:41.986Z,100918.73
2023-04-09T19:37:45.628Z,100914.87
2023-04-09T19:42:48.957Z,100921.59
2023-04-09T19:47:55.078Z,100926.00
2023-04-09T19:52:59.129Z,100935.47
2023-04-09T19:58:03.554Z,100937.55
2023-04-09T20:03:08.199Z,100936.52
2023-04-09T20:08:15.154Z,100936.96
2023-04-09T20:13:19.323Z,100936.71
2023-04-09T20:18:22.746Z,100935.27
2023-04-09T20:23:26.151Z,100940.96
2023-04-09T20:28:30.184Z,100936.90
2023-04-09T20:33:34.331Z,100930.29
2023-04-09T20:38:37.617Z,100927.88
2023-04-09T20:43:41.036Z,100932.56
2023-04-09T20:48:44.748Z,100936.96
2023-04-09T20:53:48.269Z,100938.53
2023-04-09T20:58:52.004Z,100932.70
2023-04-09T21:03:56.055Z,100933.70
2023-04-09T21:08:59.936Z,100934.26
2023-04-09T21:14:04.387Z,100931.67
2023-04-09T21:19:07.805Z,100933.52
2023-04-09T21:24:11.314Z,100930.34
2023-04-09T21:29:14.725Z,100928.17
2023-04-09T21:34:18.353Z,100927.40
2023-04-09T21:39:21.860Z,100928.42
2023-04-09T21:44:25.688Z,100930.25
2023-04-09T21:49:29.202Z,100932.47
2023-04-09T21:55:10.611Z,100933.98
2023-04-09T22:00:16.515Z,100933.51
2023-04-09T22:05:19.894Z,100928.61
2023-04-09T22:10:24.020Z,100927.39
2023-04-09T22:15:27.642Z,100918.44
2023-04-09T22:20:30.961Z,100911.84
2023-04-09T22:25:35.389Z,100906.00
2023-04-09T22:30:38.595Z,100909.73
2023-04-09T22:35:42.130Z,100906.30
2023-04-09T22:40:48.078Z,100905.80
2023-04-09T22:45:55.181Z,100908.25
2023-04-09T22:50:59.001Z,100904.60
2023-04-09T22:56:02.357Z,100905.42
2023-04-09T23:01:06.542Z,100905.02
2023-04-09T23:06:09.960Z,100907.53
2023-04-09T23:11:13.887Z,100908.19
2023-04-09T23:16:17.480Z,100909.97
2023-04-09T23:21:21.013Z,100913.55
2023-04-09T23:26:24.523Z,100910.56
2023-04-09T23:31:28.065Z,100910.07
2023-04-09T23:36:31.966Z,100909.39
2023-04-09T23:41:35.589Z,100903.67
2023-04-09T23:46:39.246Z,100904.23
2023-04-09T23:51:42.822Z,100909.84
2023-04-09T23:56:47.154Z,100909.19
